Robert G. Stone, Jr. — WDD4596 — position and weather

sailwx.info

Track history (hours):
 
Tides and Currents Weather Stations Pressure Air Temp Water Temp Dewpoint Dewpoint Depression Visibility Wind Speed Wind Dir Waves Ship Positions

Robert G. Stone, Jr.

Owner: Kirby Inland Marine, LP, Houston, TX. More information available from US FCC via Universal Licensing System and Coast Guard Vessel Documentation Center.

Last reported at 2018-Jan-08 15:29 UTC. Time now 2018-Jan-23 07:57 UTC.
Position N 29°34' W 090°28'.
Warning: this ship's position is 14 days out of date.

Length 210 m; draft 2.8 m.

Type: . MMSI: 367146780.

Date/timePositionNaut miles runAvg speedWind from/ knotsBaromVisibWave heightAir tempDewpointWater temp
2018-Jan-08 15:29N 29°34' W 090°28'3 6.2
2018-Jan-08 15:00N 29°34' W 090°32'3 6.0
2018-Jan-08 14:30N 29°35' W 090°35'2 4.8
2018-Jan-08 14:00N 29°35' W 090°38'3 5.2
2018-Jan-08 13:30N 29°36' W 090°40'2 3.7
2018-Jan-08 13:01N 29°37' W 090°42'2 3.9
2018-Jan-08 12:30N 29°35' W 090°43'5 4.8
2018-Jan-08 11:30N 29°32' W 090°48'3 6.5
2018-Jan-08 11:00N 29°32' W 090°52'3 6.5
2018-Jan-08 10:30N 29°33' W 090°55'59 4.6
2018-Jan-07 21:45N 29°50' W 091°60'3 5.6
2018-Jan-07 21:17N 29°49' W 092°03'2 5.4
2018-Jan-07 21:00N 29°48' W 092°04'3 5.6
2018-Jan-07 20:31N 29°47' W 092°07'3 5.5
2018-Jan-07 20:00N 29°47' W 092°10'2 3.7
2018-Jan-07 19:30N 29°47' W 092°12'1 1.8
2018-Jan-07 19:00N 29°47' W 092°13'1 2.2
2018-Jan-07 18:30N 29°48' W 092°14'0 0.0
2018-Jan-07 18:00N 29°48' W 092°14'0 0.0
2018-Jan-07 17:30N 29°48' W 092°14'0 0.0
2018-Jan-07 17:01N 29°48' W 092°14'0 0.0
2018-Jan-07 16:30N 29°48' W 092°14'0 0.0
2018-Jan-07 16:01N 29°48' W 092°14'0 0.4
2018-Jan-07 15:30N 29°48' W 092°14'2 3.7
2018-Jan-07 15:00N 29°49' W 092°16'2 4.3
2018-Jan-07 14:30N 29°50' W 092°18'41 4.9
2018-Jan-07 06:10N 29°56' W 093°05'1 3.6
2018-Jan-07 05:58N 29°56' W 093°06'2 3.5
2018-Jan-07 05:30N 29°56' W 093°08'2 4.7
2018-Jan-07 05:00N 29°57' W 093°10'2 5.1
2018-Jan-07 04:30N 29°59' W 093°12'2 4.9
2018-Jan-07 04:00N 30°01' W 093°14'2 4.3
2018-Jan-07 03:30N 30°02' W 093°15'2 4.3
2018-Jan-07 03:00N 30°04' W 093°16'2 3.2
2018-Jan-07 02:30N 30°05' W 093°18'1 2.1
2018-Jan-07 02:00N 30°06' W 093°18'0 0.0
2018-Jan-07 01:30N 30°06' W 093°18'0 0.0
2018-Jan-07 00:30N 30°06' W 093°18'2 3.1
2018-Jan-07 00:00N 30°05' W 093°20'2 3.6
2018-Jan-06 23:30N 30°04' W 093°21'2 4.0
2018-Jan-06 23:00N 30°04' W 093°23'3 5.5
2018-Jan-06 22:30N 30°04' W 093°27'3 5.5
2018-Jan-06 22:00N 30°04' W 093°30'3 5.3
2018-Jan-06 21:30N 30°04' W 093°33'5 5.5
2018-Jan-06 20:34N 30°04' W 093°39'1 5.9
2018-Jan-06 20:19N 30°04' W 093°40'3 5.7
2018-Jan-06 19:51N 30°03' W 093°43'  
2018-Jan-04 08:22N 29°32' W 094°53'3 9.7
2018-Jan-04 08:01N 29°34' W 094°56'5 9.6
2018-Jan-04 07:30N 29°39' W 094°58'4 8.6
2018-Jan-04 07:01N 29°42' W 095°01'4 8.4
2018-Jan-04 06:30N 29°45' W 095°04'1 2.4
2018-Jan-04 05:59N 29°46' W 095°05'1 1.2
2018-Jan-04 05:30N 29°46' W 095°05'0 0.1
2018-Jan-04 04:22N 29°46' W 095°05'1 0.1
2018-Jan-03 13:39N 29°45' W 095°06'0 0.0
2018-Jan-03 13:28N 29°45' W 095°06'0 0.0
2018-Jan-03 13:00N 29°45' W 095°06'0 0.0
2018-Jan-03 12:30N 29°45' W 095°06'1 0.0
2018-Jan-03 01:43N 29°46' W 095°06'0 0.3
2018-Jan-03 00:33N 29°46' W 095°05'0 5.0
2018-Jan-03 00:30N 29°46' W 095°05'5 3.0
2018-Jan-02 22:58N 29°43' W 095°01'3 7.2
2018-Jan-02 22:31N 29°41' W 094°59'4 7.1
2018-Jan-02 22:01N 29°37' W 094°57'4 7.9
2018-Jan-02 21:31N 29°34' W 094°55'4 8.7
2018-Jan-02 21:00N 29°30' W 094°52'69 3.2
2018-Jan-01 23:36N 30°03' W 093°43'2 5.5
2018-Jan-01 23:18N 30°04' W 093°41'2 5.8
2018-Jan-01 23:00N 30°04' W 093°39'3 5.9
2018-Jan-01 22:30N 30°04' W 093°35'0 0.7
2018-Jan-01 22:00N 30°04' W 093°35'0 0.0
2018-Jan-01 21:31N 30°04' W 093°35'0 0.0
2018-Jan-01 21:01N 30°04' W 093°35'0 0.0
2018-Jan-01 20:31N 30°04' W 093°35'0 0.0
2018-Jan-01 20:01N 30°04' W 093°35'0 0.0
2018-Jan-01 19:30N 30°04' W 093°35'0 0.0
2018-Jan-01 19:01N 30°04' W 093°35'0 0.0
2018-Jan-01 18:30N 30°04' W 093°35'0 0.0
2018-Jan-01 18:00N 30°04' W 093°35'0 0.0
2018-Jan-01 17:30N 30°04' W 093°35'0 0.0
2017-Dec-31 04:43N 30°04' W 093°35'0 2.1
2017-Dec-31 04:30N 30°04' W 093°34'2 3.5
2017-Dec-31 04:00N 30°04' W 093°32'3 5.3
2017-Dec-31 03:30N 30°04' W 093°29'3 6.1
2017-Dec-31 03:00N 30°04' W 093°26'3 6.1
2017-Dec-31 02:30N 30°04' W 093°22'3 5.1
2017-Dec-31 02:00N 30°05' W 093°20'2 3.1
2017-Dec-31 01:30N 30°06' W 093°19'0 0.0
2017-Dec-31 01:00N 30°06' W 093°19'1 2.0
2017-Dec-31 00:30N 30°05' W 093°18'2 3.4
2017-Dec-31 00:00N 30°04' W 093°16'0 0.6
2017-Dec-30 23:30N 30°04' W 093°16'2 3.3
2017-Dec-30 23:00N 30°03' W 093°16'2 4.8
2017-Dec-30 22:30N 30°01' W 093°14'2 4.9
2017-Dec-30 22:00N 29°59' W 093°12'3 5.9
2017-Dec-30 21:30N 29°57' W 093°10'3 6.0
2017-Dec-30 21:00N 29°56' W 093°07'3 6.3
2017-Dec-30 20:30N 29°56' W 093°03'35 6.0
2017-Dec-30 14:38N 29°52' W 092°22'1 6.0
2017-Dec-30 14:25N 29°51' W 092°22'3 6.2
2017-Dec-30 14:00N 29°50' W 092°19'3 5.4
2017-Dec-30 13:30N 29°49' W 092°16'3 6.4
2017-Dec-30 13:00N 29°47' W 092°13'2 3.5
2017-Dec-30 12:30N 29°47' W 092°11'0 0.0
2017-Dec-30 12:00N 29°47' W 092°11'0 0.8
2017-Dec-30 11:30N 29°47' W 092°11'0 0.0
2017-Dec-30 11:00N 29°47' W 092°11'0 0.0
2017-Dec-30 10:30N 29°47' W 092°11'0 0.0
2017-Dec-30 10:00N 29°47' W 092°11'0 0.0
2017-Dec-30 09:30N 29°47' W 092°11'0 0.0
2017-Dec-30 09:00N 29°47' W 092°11'0 0.1
2017-Dec-30 08:30N 29°47' W 092°11'2 4.6
2017-Dec-30 08:00N 29°47' W 092°08'3 6.6
2017-Dec-30 07:30N 29°48' W 092°05'3 6.6
2017-Dec-30 07:00N 29°49' W 092°01'3 6.2
2017-Dec-30 06:30N 29°50' W 091°58'  
Track history (hours):
 
Tides and Currents Weather Stations Pressure Air Temp Water Temp Dewpoint Dewpoint Depression Visibility Wind Speed Wind Dir Waves Ship Positions

Robert G. Stone, Jr.

Owner: Kirby Inland Marine, LP, Houston, TX. More information available from US FCC via Universal Licensing System and Coast Guard Vessel Documentation Center.

Last reported at 2018-Jan-08 15:29 UTC. Time now 2018-Jan-23 07:57 UTC.
Position N 29°34' W 090°28'.
Warning: this ship's position is 14 days out of date.

Length 210 m; draft 2.8 m.

Type: . MMSI: 367146780.

Date/timePositionNaut miles runAvg speedWind from/ knotsBaromVisibWave heightAir tempDewpointWater temp
2018-Jan-08 15:29N 29°34' W 090°28'3 6.2
2018-Jan-08 15:00N 29°34' W 090°32'3 6.0
2018-Jan-08 14:30N 29°35' W 090°35'2 4.8
2018-Jan-08 14:00N 29°35' W 090°38'3 5.2
2018-Jan-08 13:30N 29°36' W 090°40'2 3.7
2018-Jan-08 13:01N 29°37' W 090°42'2 3.9
2018-Jan-08 12:30N 29°35' W 090°43'5 4.8
2018-Jan-08 11:30N 29°32' W 090°48'3 6.5
2018-Jan-08 11:00N 29°32' W 090°52'3 6.5
2018-Jan-08 10:30N 29°33' W 090°55'59 4.6
2018-Jan-07 21:45N 29°50' W 091°60'3 5.6
2018-Jan-07 21:17N 29°49' W 092°03'2 5.4
2018-Jan-07 21:00N 29°48' W 092°04'3 5.6
2018-Jan-07 20:31N 29°47' W 092°07'3 5.5
2018-Jan-07 20:00N 29°47' W 092°10'2 3.7
2018-Jan-07 19:30N 29°47' W 092°12'1 1.8
2018-Jan-07 19:00N 29°47' W 092°13'1 2.2
2018-Jan-07 18:30N 29°48' W 092°14'0 0.0
2018-Jan-07 18:00N 29°48' W 092°14'0 0.0
2018-Jan-07 17:30N 29°48' W 092°14'0 0.0
2018-Jan-07 17:01N 29°48' W 092°14'0 0.0
2018-Jan-07 16:30N 29°48' W 092°14'0 0.0
2018-Jan-07 16:01N 29°48' W 092°14'0 0.4
2018-Jan-07 15:30N 29°48' W 092°14'2 3.7
2018-Jan-07 15:00N 29°49' W 092°16'2 4.3
2018-Jan-07 14:30N 29°50' W 092°18'41 4.9
2018-Jan-07 06:10N 29°56' W 093°05'1 3.6
2018-Jan-07 05:58N 29°56' W 093°06'2 3.5
2018-Jan-07 05:30N 29°56' W 093°08'2 4.7
2018-Jan-07 05:00N 29°57' W 093°10'2 5.1
2018-Jan-07 04:30N 29°59' W 093°12'2 4.9
2018-Jan-07 04:00N 30°01' W 093°14'2 4.3
2018-Jan-07 03:30N 30°02' W 093°15'2 4.3
2018-Jan-07 03:00N 30°04' W 093°16'2 3.2
2018-Jan-07 02:30N 30°05' W 093°18'1 2.1
2018-Jan-07 02:00N 30°06' W 093°18'0 0.0
2018-Jan-07 01:30N 30°06' W 093°18'0 0.0
2018-Jan-07 00:30N 30°06' W 093°18'2 3.1
2018-Jan-07 00:00N 30°05' W 093°20'2 3.6
2018-Jan-06 23:30N 30°04' W 093°21'2 4.0
2018-Jan-06 23:00N 30°04' W 093°23'3 5.5
2018-Jan-06 22:30N 30°04' W 093°27'3 5.5
2018-Jan-06 22:00N 30°04' W 093°30'3 5.3
2018-Jan-06 21:30N 30°04' W 093°33'5 5.5
2018-Jan-06 20:34N 30°04' W 093°39'1 5.9
2018-Jan-06 20:19N 30°04' W 093°40'3 5.7
2018-Jan-06 19:51N 30°03' W 093°43'  
2018-Jan-04 08:22N 29°32' W 094°53'3 9.7
2018-Jan-04 08:01N 29°34' W 094°56'5 9.6
2018-Jan-04 07:30N 29°39' W 094°58'4 8.6
2018-Jan-04 07:01N 29°42' W 095°01'4 8.4
2018-Jan-04 06:30N 29°45' W 095°04'1 2.4
2018-Jan-04 05:59N 29°46' W 095°05'1 1.2
2018-Jan-04 05:30N 29°46' W 095°05'0 0.1
2018-Jan-04 04:22N 29°46' W 095°05'1 0.1
2018-Jan-03 13:39N 29°45' W 095°06'0 0.0
2018-Jan-03 13:28N 29°45' W 095°06'0 0.0
2018-Jan-03 13:00N 29°45' W 095°06'0 0.0
2018-Jan-03 12:30N 29°45' W 095°06'1 0.0
2018-Jan-03 01:43N 29°46' W 095°06'0 0.3
2018-Jan-03 00:33N 29°46' W 095°05'0 5.0
2018-Jan-03 00:30N 29°46' W 095°05'5 3.0
2018-Jan-02 22:58N 29°43' W 095°01'3 7.2
2018-Jan-02 22:31N 29°41' W 094°59'4 7.1
2018-Jan-02 22:01N 29°37' W 094°57'4 7.9
2018-Jan-02 21:31N 29°34' W 094°55'4 8.7
2018-Jan-02 21:00N 29°30' W 094°52'69 3.2
2018-Jan-01 23:36N 30°03' W 093°43'2 5.5
2018-Jan-01 23:18N 30°04' W 093°41'2 5.8
2018-Jan-01 23:00N 30°04' W 093°39'3 5.9
2018-Jan-01 22:30N 30°04' W 093°35'0 0.7
2018-Jan-01 22:00N 30°04' W 093°35'0 0.0
2018-Jan-01 21:31N 30°04' W 093°35'0 0.0
2018-Jan-01 21:01N 30°04' W 093°35'0 0.0
2018-Jan-01 20:31N 30°04' W 093°35'0 0.0
2018-Jan-01 20:01N 30°04' W 093°35'0 0.0
2018-Jan-01 19:30N 30°04' W 093°35'0 0.0
2018-Jan-01 19:01N 30°04' W 093°35'0 0.0
2018-Jan-01 18:30N 30°04' W 093°35'0 0.0
2018-Jan-01 18:00N 30°04' W 093°35'0 0.0
2018-Jan-01 17:30N 30°04' W 093°35'0 0.0
2017-Dec-31 04:43N 30°04' W 093°35'0 2.1
2017-Dec-31 04:30N 30°04' W 093°34'2 3.5
2017-Dec-31 04:00N 30°04' W 093°32'3 5.3
2017-Dec-31 03:30N 30°04' W 093°29'3 6.1
2017-Dec-31 03:00N 30°04' W 093°26'3 6.1
2017-Dec-31 02:30N 30°04' W 093°22'3 5.1
2017-Dec-31 02:00N 30°05' W 093°20'2 3.1
2017-Dec-31 01:30N 30°06' W 093°19'0 0.0
2017-Dec-31 01:00N 30°06' W 093°19'1 2.0
2017-Dec-31 00:30N 30°05' W 093°18'2 3.4
2017-Dec-31 00:00N 30°04' W 093°16'0 0.6
2017-Dec-30 23:30N 30°04' W 093°16'2 3.3
2017-Dec-30 23:00N 30°03' W 093°16'2 4.8
2017-Dec-30 22:30N 30°01' W 093°14'2 4.9
2017-Dec-30 22:00N 29°59' W 093°12'3 5.9
2017-Dec-30 21:30N 29°57' W 093°10'3 6.0
2017-Dec-30 21:00N 29°56' W 093°07'3 6.3
2017-Dec-30 20:30N 29°56' W 093°03'35 6.0
2017-Dec-30 14:38N 29°52' W 092°22'1 6.0
2017-Dec-30 14:25N 29°51' W 092°22'3 6.2
2017-Dec-30 14:00N 29°50' W 092°19'3 5.4
2017-Dec-30 13:30N 29°49' W 092°16'3 6.4
2017-Dec-30 13:00N 29°47' W 092°13'2 3.5
2017-Dec-30 12:30N 29°47' W 092°11'0 0.0
2017-Dec-30 12:00N 29°47' W 092°11'0 0.8
2017-Dec-30 11:30N 29°47' W 092°11'0 0.0
2017-Dec-30 11:00N 29°47' W 092°11'0 0.0
2017-Dec-30 10:30N 29°47' W 092°11'0 0.0
2017-Dec-30 10:00N 29°47' W 092°11'0 0.0
2017-Dec-30 09:30N 29°47' W 092°11'0 0.0
2017-Dec-30 09:00N 29°47' W 092°11'0 0.1
2017-Dec-30 08:30N 29°47' W 092°11'2 4.6
2017-Dec-30 08:00N 29°47' W 092°08'3 6.6
2017-Dec-30 07:30N 29°48' W 092°05'3 6.6
2017-Dec-30 07:00N 29°49' W 092°01'3 6.2
2017-Dec-30 06:30N 29°50' W 091°58'  

Dump ship's entire track history